sensor_id;sensor_type;location;lat;lon;timestamp;P1;durP1;ratioP1;P2;durP2;ratioP2
34098;SDS011;20374;49.474;10.944;2022-10-16T00:01:18;3.40;;;3.20;;
34098;SDS011;20374;49.474;10.944;2022-10-16T00:03:46;3.85;;;3.55;;
34098;SDS011;20374;49.474;10.944;2022-10-16T00:06:12;4.30;;;3.47;;
34098;SDS011;20374;49.474;10.944;2022-10-16T00:08:39;3.60;;;3.40;;
34098;SDS011;20374;49.474;10.944;2022-10-16T00:13:58;3.33;;;3.13;;
34098;SDS011;20374;49.474;10.944;2022-10-16T00:16:25;3.47;;;3.10;;
34098;SDS011;20374;49.474;10.944;2022-10-16T00:18:52;4.93;;;3.10;;
34098;SDS011;20374;49.474;10.944;2022-10-16T00:21:20;3.42;;;3.22;;
34098;SDS011;20374;49.474;10.944;2022-10-16T00:23:51;3.83;;;3.28;;
34098;SDS011;20374;49.474;10.944;2022-10-16T00:26:19;3.10;;;2.83;;
34098;SDS011;20374;49.474;10.944;2022-10-16T00:28:47;3.70;;;3.50;;
34098;SDS011;20374;49.474;10.944;2022-10-16T00:31:14;3.63;;;3.43;;
34098;SDS011;20374;49.474;10.944;2022-10-16T00:33:41;4.07;;;3.72;;
34098;SDS011;20374;49.474;10.944;2022-10-16T00:36:08;4.28;;;3.97;;
34098;SDS011;20374;49.474;10.944;2022-10-16T00:38:37;3.97;;;3.67;;
34098;SDS011;20374;49.474;10.944;2022-10-16T00:41:05;5.68;;;3.40;;
34098;SDS011;20374;49.474;10.944;2022-10-16T00:46:00;3.30;;;3.08;;
34098;SDS011;20374;49.474;10.944;2022-10-16T00:48:28;4.20;;;3.80;;
34098;SDS011;20374;49.474;10.944;2022-10-16T00:50:55;3.70;;;3.40;;
34098;SDS011;20374;49.474;10.944;2022-10-16T00:53:23;4.05;;;3.75;;
34098;SDS011;20374;49.474;10.944;2022-10-16T00:55:50;3.70;;;3.50;;
34098;SDS011;20374;49.474;10.944;2022-10-16T00:58:17;3.67;;;3.38;;
34098;SDS011;20374;49.474;10.944;2022-10-16T01:00:43;6.22;;;3.67;;
34098;SDS011;20374;49.474;10.944;2022-10-16T01:03:26;4.00;;;3.70;;
34098;SDS011;20374;49.474;10.944;2022-10-16T01:17:26;3.90;;;3.60;;
34098;SDS011;20374;49.474;10.944;2022-10-16T01:25:12;4.05;;;3.75;;
34098;SDS011;20374;49.474;10.944;2022-10-16T01:27:48;3.60;;;3.30;;
34098;SDS011;20374;49.474;10.944;2022-10-16T01:30:21;4.00;;;3.70;;
34098;SDS011;20374;49.474;10.944;2022-10-16T01:32:58;3.50;;;3.30;;
34098;SDS011;20374;49.474;10.944;2022-10-16T01:35:32;3.35;;;3.08;;
34098;SDS011;20374;49.474;10.944;2022-10-16T01:38:19;4.80;;;3.78;;
34098;SDS011;20374;49.474;10.944;2022-10-16T01:40:50;3.53;;;3.30;;
34098;SDS011;20374;49.474;10.944;2022-10-16T01:43:23;4.07;;;3.77;;
34098;SDS011;20374;49.474;10.944;2022-10-16T01:45:56;3.63;;;3.38;;
34098;SDS011;20374;49.474;10.944;2022-10-16T01:48:24;5.13;;;4.00;;
34098;SDS011;20374;49.474;10.944;2022-10-16T01:51:01;3.92;;;3.63;;
34098;SDS011;20374;49.474;10.944;2022-10-16T01:53:33;3.90;;;3.60;;
34098;SDS011;20374;49.474;10.944;2022-10-16T01:56:00;3.93;;;3.63;;
34098;SDS011;20374;49.474;10.944;2022-10-16T01:58:29;5.13;;;3.67;;
34098;SDS011;20374;49.474;10.944;2022-10-16T02:00:59;3.88;;;3.58;;
34098;SDS011;20374;49.474;10.944;2022-10-16T02:03:27;4.47;;;3.65;;
34098;SDS011;20374;49.474;10.944;2022-10-16T02:05:54;4.10;;;3.80;;
34098;SDS011;20374;49.474;10.944;2022-10-16T02:08:24;4.17;;;3.50;;
34098;SDS011;20374;49.474;10.944;2022-10-16T02:10:54;3.75;;;3.55;;
34098;SDS011;20374;49.474;10.944;2022-10-16T02:13:23;4.47;;;4.00;;
34098;SDS011;20374;49.474;10.944;2022-10-16T02:16:10;3.63;;;3.33;;
34098;SDS011;20374;49.474;10.944;2022-10-16T02:18:38;4.32;;;3.95;;
34098;SDS011;20374;49.474;10.944;2022-10-16T02:21:07;4.23;;;3.93;;
34098;SDS011;20374;49.474;10.944;2022-10-16T02:23:51;3.53;;;3.33;;
34098;SDS011;20374;49.474;10.944;2022-10-16T02:29:21;3.90;;;3.60;;
34098;SDS011;20374;49.474;10.944;2022-10-16T02:31:51;4.25;;;3.85;;
34098;SDS011;20374;49.474;10.944;2022-10-16T02:34:21;4.40;;;4.10;;
34098;SDS011;20374;49.474;10.944;2022-10-16T02:36:50;4.15;;;3.85;;
34098;SDS011;20374;49.474;10.944;2022-10-16T02:39:18;4.32;;;3.92;;
34098;SDS011;20374;49.474;10.944;2022-10-16T02:41:45;3.90;;;3.60;;
34098;SDS011;20374;49.474;10.944;2022-10-16T02:44:11;4.30;;;4.00;;
34098;SDS011;20374;49.474;10.944;2022-10-16T02:46:37;4.30;;;3.80;;
34098;SDS011;20374;49.474;10.944;2022-10-16T02:49:03;3.90;;;3.60;;
34098;SDS011;20374;49.474;10.944;2022-10-16T02:51:29;4.70;;;4.40;;
34098;SDS011;20374;49.474;10.944;2022-10-16T02:53:54;4.13;;;3.83;;
34098;SDS011;20374;49.474;10.944;2022-10-16T02:56:20;4.43;;;4.07;;
34098;SDS011;20374;49.474;10.944;2022-10-16T02:58:46;4.78;;;4.18;;
34098;SDS011;20374;49.474;10.944;2022-10-16T03:01:12;4.07;;;3.77;;
34098;SDS011;20374;49.474;10.944;2022-10-16T03:03:39;3.90;;;3.60;;
34098;SDS011;20374;49.474;10.944;2022-10-16T03:06:05;3.80;;;3.42;;
34098;SDS011;20374;49.474;10.944;2022-10-16T03:08:31;4.10;;;3.80;;
34098;SDS011;20374;49.474;10.944;2022-10-16T03:10:57;3.35;;;3.10;;
34098;SDS011;20374;49.474;10.944;2022-10-16T03:13:22;4.03;;;3.72;;
34098;SDS011;20374;49.474;10.944;2022-10-16T03:15:48;4.00;;;3.70;;
34098;SDS011;20374;49.474;10.944;2022-10-16T03:18:15;5.40;;;3.70;;
34098;SDS011;20374;49.474;10.944;2022-10-16T03:20:42;4.03;;;3.67;;
34098;SDS011;20374;49.474;10.944;2022-10-16T03:23:08;5.38;;;3.60;;
34098;SDS011;20374;49.474;10.944;2022-10-16T03:25:34;4.23;;;3.93;;
34098;SDS011;20374;49.474;10.944;2022-10-16T03:28:00;3.78;;;3.47;;
34098;SDS011;20374;49.474;10.944;2022-10-16T03:30:26;4.15;;;3.85;;
34098;SDS011;20374;49.474;10.944;2022-10-16T03:32:52;4.38;;;3.65;;
34098;SDS011;20374;49.474;10.944;2022-10-16T03:35:19;4.10;;;3.80;;
34098;SDS011;20374;49.474;10.944;2022-10-16T03:37:46;3.90;;;3.60;;
34098;SDS011;20374;49.474;10.944;2022-10-16T03:40:12;3.85;;;3.55;;
34098;SDS011;20374;49.474;10.944;2022-10-16T03:42:38;3.58;;;3.28;;
34098;SDS011;20374;49.474;10.944;2022-10-16T03:45:04;4.13;;;3.83;;
34098;SDS011;20374;49.474;10.944;2022-10-16T03:47:30;3.90;;;3.60;;
34098;SDS011;20374;49.474;10.944;2022-10-16T03:49:58;4.38;;;4.07;;
34098;SDS011;20374;49.474;10.944;2022-10-16T03:52:24;3.63;;;3.40;;
34098;SDS011;20374;49.474;10.944;2022-10-16T03:54:50;4.47;;;4.17;;
34098;SDS011;20374;49.474;10.944;2022-10-16T03:57:16;4.20;;;3.90;;
34098;SDS011;20374;49.474;10.944;2022-10-16T03:59:42;5.18;;;4.05;;
34098;SDS011;20374;49.474;10.944;2022-10-16T04:02:08;4.25;;;3.85;;
34098;SDS011;20374;49.474;10.944;2022-10-16T04:04:34;4.40;;;4.10;;
34098;SDS011;20374;49.474;10.944;2022-10-16T04:07:00;4.05;;;3.75;;
34098;SDS011;20374;49.474;10.944;2022-10-16T04:09:26;4.60;;;3.55;;
34098;SDS011;20374;49.474;10.944;2022-10-16T04:11:52;4.18;;;3.65;;
34098;SDS011;20374;49.474;10.944;2022-10-16T04:14:18;3.72;;;3.42;;
34098;SDS011;20374;49.474;10.944;2022-10-16T04:16:44;5.38;;;4.15;;
34098;SDS011;20374;49.474;10.944;2022-10-16T04:19:10;4.50;;;4.10;;
34098;SDS011;20374;49.474;10.944;2022-10-16T04:21:36;4.53;;;4.13;;
34098;SDS011;20374;49.474;10.944;2022-10-16T04:24:02;3.80;;;3.30;;
34098;SDS011;20374;49.474;10.944;2022-10-16T04:26:29;3.95;;;3.65;;
34098;SDS011;20374;49.474;10.944;2022-10-16T04:28:55;7.35;;;3.50;;
34098;SDS011;20374;49.474;10.944;2022-10-16T04:31:21;3.45;;;3.15;;
34098;SDS011;20374;49.474;10.944;2022-10-16T04:33:47;3.97;;;3.60;;
34098;SDS011;20374;49.474;10.944;2022-10-16T04:36:13;4.10;;;3.60;;
34098;SDS011;20374;49.474;10.944;2022-10-16T04:38:39;3.92;;;3.63;;
34098;SDS011;20374;49.474;10.944;2022-10-16T04:41:06;3.70;;;3.40;;
34098;SDS011;20374;49.474;10.944;2022-10-16T04:43:32;4.33;;;3.40;;
34098;SDS011;20374;49.474;10.944;2022-10-16T04:45:59;3.85;;;3.45;;
34098;SDS011;20374;49.474;10.944;2022-10-16T04:48:26;3.80;;;3.50;;
34098;SDS011;20374;49.474;10.944;2022-10-16T04:50:51;3.88;;;3.58;;
34098;SDS011;20374;49.474;10.944;2022-10-16T04:53:18;3.75;;;3.45;;
34098;SDS011;20374;49.474;10.944;2022-10-16T04:55:44;4.83;;;3.83;;
34098;SDS011;20374;49.474;10.944;2022-10-16T04:58:10;3.92;;;3.63;;
34098;SDS011;20374;49.474;10.944;2022-10-16T05:00:35;4.47;;;4.18;;
34098;SDS011;20374;49.474;10.944;2022-10-16T05:03:02;4.20;;;3.90;;
34098;SDS011;20374;49.474;10.944;2022-10-16T05:05:31;3.67;;;3.38;;
34098;SDS011;20374;49.474;10.944;2022-10-16T05:07:56;4.45;;;4.05;;
34098;SDS011;20374;49.474;10.944;2022-10-16T05:10:22;4.30;;;4.00;;
34098;SDS011;20374;49.474;10.944;2022-10-16T05:12:48;3.65;;;3.35;;
34098;SDS011;20374;49.474;10.944;2022-10-16T05:15:15;4.32;;;3.95;;
34098;SDS011;20374;49.474;10.944;2022-10-16T05:17:40;4.03;;;3.72;;
34098;SDS011;20374;49.474;10.944;2022-10-16T05:20:06;4.47;;;3.87;;
34098;SDS011;20374;49.474;10.944;2022-10-16T05:22:36;4.40;;;4.00;;
34098;SDS011;20374;49.474;10.944;2022-10-16T05:25:02;4.10;;;3.70;;
34098;SDS011;20374;49.474;10.944;2022-10-16T05:27:28;4.10;;;3.80;;
34098;SDS011;20374;49.474;10.944;2022-10-16T05:29:53;4.30;;;3.97;;
34098;SDS011;20374;49.474;10.944;2022-10-16T05:32:19;4.47;;;4.07;;
34098;SDS011;20374;49.474;10.944;2022-10-16T05:34:45;4.43;;;4.13;;
34098;SDS011;20374;49.474;10.944;2022-10-16T05:37:11;5.28;;;3.15;;
34098;SDS011;20374;49.474;10.944;2022-10-16T05:39:38;6.55;;;5.85;;
34098;SDS011;20374;49.474;10.944;2022-10-16T05:42:04;4.07;;;3.67;;
34098;SDS011;20374;49.474;10.944;2022-10-16T05:44:31;4.40;;;4.00;;
34098;SDS011;20374;49.474;10.944;2022-10-16T05:46:57;4.27;;;3.93;;
34098;SDS011;20374;49.474;10.944;2022-10-16T05:49:23;4.28;;;3.85;;
34098;SDS011;20374;49.474;10.944;2022-10-16T05:51:49;4.20;;;3.80;;
34098;SDS011;20374;49.474;10.944;2022-10-16T05:54:15;4.05;;;3.65;;
34098;SDS011;20374;49.474;10.944;2022-10-16T05:56:41;3.90;;;3.60;;
34098;SDS011;20374;49.474;10.944;2022-10-16T05:59:07;4.32;;;3.97;;
34098;SDS011;20374;49.474;10.944;2022-10-16T06:01:33;4.53;;;3.92;;
34098;SDS011;20374;49.474;10.944;2022-10-16T06:03:58;4.35;;;4.05;;
34098;SDS011;20374;49.474;10.944;2022-10-16T06:06:25;4.30;;;4.00;;
34098;SDS011;20374;49.474;10.944;2022-10-16T06:08:53;4.70;;;4.30;;
34098;SDS011;20374;49.474;10.944;2022-10-16T06:11:21;4.40;;;4.10;;
34098;SDS011;20374;49.474;10.944;2022-10-16T06:13:49;3.95;;;3.63;;
34098;SDS011;20374;49.474;10.944;2022-10-16T06:16:16;4.13;;;3.83;;
34098;SDS011;20374;49.474;10.944;2022-10-16T06:18:43;4.07;;;3.78;;
34098;SDS011;20374;49.474;10.944;2022-10-16T06:21:12;4.43;;;4.13;;
34098;SDS011;20374;49.474;10.944;2022-10-16T06:23:41;3.88;;;3.58;;
34098;SDS011;20374;49.474;10.944;2022-10-16T06:26:11;4.35;;;3.95;;
34098;SDS011;20374;49.474;10.944;2022-10-16T06:28:39;3.92;;;3.63;;
34098;SDS011;20374;49.474;10.944;2022-10-16T06:31:06;4.07;;;3.78;;
34098;SDS011;20374;49.474;10.944;2022-10-16T06:33:33;4.50;;;4.20;;
34098;SDS011;20374;49.474;10.944;2022-10-16T06:36:01;3.35;;;3.05;;
34098;SDS011;20374;49.474;10.944;2022-10-16T06:38:53;3.78;;;3.45;;
34098;SDS011;20374;49.474;10.944;2022-10-16T06:41:20;4.35;;;4.05;;
34098;SDS011;20374;49.474;10.944;2022-10-16T06:43:48;4.53;;;4.13;;
34098;SDS011;20374;49.474;10.944;2022-10-16T06:46:15;4.40;;;4.10;;
34098;SDS011;20374;49.474;10.944;2022-10-16T06:48:43;3.80;;;3.50;;
34098;SDS011;20374;49.474;10.944;2022-10-16T06:51:13;6.63;;;3.88;;
34098;SDS011;20374;49.474;10.944;2022-10-16T06:53:42;4.50;;;4.10;;
34098;SDS011;20374;49.474;10.944;2022-10-16T06:56:21;4.50;;;4.10;;
34098;SDS011;20374;49.474;10.944;2022-10-16T06:58:47;4.03;;;3.72;;
34098;SDS011;20374;49.474;10.944;2022-10-16T07:01:14;4.38;;;4.07;;
34098;SDS011;20374;49.474;10.944;2022-10-16T07:03:42;3.95;;;3.65;;
34098;SDS011;20374;49.474;10.944;2022-10-16T07:06:09;4.82;;;3.35;;
34098;SDS011;20374;49.474;10.944;2022-10-16T07:08:38;5.03;;;4.47;;
34098;SDS011;20374;49.474;10.944;2022-10-16T07:11:06;4.13;;;3.83;;
34098;SDS011;20374;49.474;10.944;2022-10-16T07:13:36;4.35;;;4.05;;
34098;SDS011;20374;49.474;10.944;2022-10-16T07:16:11;4.40;;;4.10;;
34098;SDS011;20374;49.474;10.944;2022-10-16T07:18:38;5.63;;;3.53;;
34098;SDS011;20374;49.474;10.944;2022-10-16T07:21:09;4.20;;;3.90;;
34098;SDS011;20374;49.474;10.944;2022-10-16T07:23:37;4.40;;;3.38;;
34098;SDS011;20374;49.474;10.944;2022-10-16T07:26:04;4.13;;;3.83;;
34098;SDS011;20374;49.474;10.944;2022-10-16T07:28:31;4.13;;;3.83;;
34098;SDS011;20374;49.474;10.944;2022-10-16T07:31:01;4.47;;;3.60;;
34098;SDS011;20374;49.474;10.944;2022-10-16T07:33:27;4.13;;;3.83;;
34098;SDS011;20374;49.474;10.944;2022-10-16T07:35:54;4.53;;;3.53;;
34098;SDS011;20374;49.474;10.944;2022-10-16T07:38:20;4.18;;;3.88;;
34098;SDS011;20374;49.474;10.944;2022-10-16T07:40:48;4.03;;;3.72;;
34098;SDS011;20374;49.474;10.944;2022-10-16T07:43:20;3.80;;;3.50;;
34098;SDS011;20374;49.474;10.944;2022-10-16T07:45:49;4.80;;;4.40;;
34098;SDS011;20374;49.474;10.944;2022-10-16T07:48:16;4.45;;;4.05;;
34098;SDS011;20374;49.474;10.944;2022-10-16T07:50:42;4.50;;;4.20;;
34098;SDS011;20374;49.474;10.944;2022-10-16T07:53:09;4.75;;;4.35;;
34098;SDS011;20374;49.474;10.944;2022-10-16T07:55:35;4.45;;;4.10;;
34098;SDS011;20374;49.474;10.944;2022-10-16T07:58:01;4.50;;;4.10;;
34098;SDS011;20374;49.474;10.944;2022-10-16T08:00:26;4.45;;;4.10;;
34098;SDS011;20374;49.474;10.944;2022-10-16T08:02:52;4.20;;;3.90;;
34098;SDS011;20374;49.474;10.944;2022-10-16T08:05:18;4.13;;;3.70;;
34098;SDS011;20374;49.474;10.944;2022-10-16T08:07:50;4.72;;;4.32;;
34098;SDS011;20374;49.474;10.944;2022-10-16T08:10:17;4.40;;;4.10;;
34098;SDS011;20374;49.474;10.944;2022-10-16T08:12:44;4.35;;;4.05;;
34098;SDS011;20374;49.474;10.944;2022-10-16T08:15:10;4.57;;;4.07;;
34098;SDS011;20374;49.474;10.944;2022-10-16T08:17:38;4.93;;;4.53;;
34098;SDS011;20374;49.474;10.944;2022-10-16T08:20:04;4.05;;;3.65;;
34098;SDS011;20374;49.474;10.944;2022-10-16T08:22:31;4.90;;;4.13;;
34098;SDS011;20374;49.474;10.944;2022-10-16T08:24:56;4.15;;;3.67;;
34098;SDS011;20374;49.474;10.944;2022-10-16T08:27:23;4.40;;;4.00;;
34098;SDS011;20374;49.474;10.944;2022-10-16T08:29:49;4.80;;;4.40;;
34098;SDS011;20374;49.474;10.944;2022-10-16T08:32:15;4.60;;;3.75;;
34098;SDS011;20374;49.474;10.944;2022-10-16T08:34:41;4.93;;;4.25;;
34098;SDS011;20374;49.474;10.944;2022-10-16T08:37:07;7.40;;;4.40;;
34098;SDS011;20374;49.474;10.944;2022-10-16T08:39:36;4.05;;;3.75;;
34098;SDS011;20374;49.474;10.944;2022-10-16T08:42:11;4.45;;;4.05;;
34098;SDS011;20374;49.474;10.944;2022-10-16T08:44:53;3.78;;;3.47;;
34098;SDS011;20374;49.474;10.944;2022-10-16T08:47:26;4.68;;;4.28;;
34098;SDS011;20374;49.474;10.944;2022-10-16T08:50:14;4.77;;;4.00;;
34098;SDS011;20374;49.474;10.944;2022-10-16T08:52:46;4.13;;;3.72;;
34098;SDS011;20374;49.474;10.944;2022-10-16T08:55:17;4.22;;;3.80;;
34098;SDS011;20374;49.474;10.944;2022-10-16T08:57:51;4.18;;;3.88;;
34098;SDS011;20374;49.474;10.944;2022-10-16T09:00:17;4.00;;;3.70;;
34098;SDS011;20374;49.474;10.944;2022-10-16T09:05:25;4.43;;;4.03;;
34098;SDS011;20374;49.474;10.944;2022-10-16T09:10:59;6.43;;;4.10;;
34098;SDS011;20374;49.474;10.944;2022-10-16T09:13:38;4.57;;;4.23;;
34098;SDS011;20374;49.474;10.944;2022-10-16T09:17:12;4.00;;;3.70;;
34098;SDS011;20374;49.474;10.944;2022-10-16T09:19:28;4.30;;;4.00;;
34098;SDS011;20374;49.474;10.944;2022-10-16T09:22:01;4.40;;;4.10;;
34098;SDS011;20374;49.474;10.944;2022-10-16T09:24:39;4.50;;;4.10;;
34098;SDS011;20374;49.474;10.944;2022-10-16T09:27:04;3.87;;;3.57;;
34098;SDS011;20374;49.474;10.944;2022-10-16T09:29:35;3.67;;;3.38;;
34098;SDS011;20374;49.474;10.944;2022-10-16T09:32:07;3.97;;;3.67;;
34098;SDS011;20374;49.474;10.944;2022-10-16T09:34:43;4.22;;;3.92;;
34098;SDS011;20374;49.474;10.944;2022-10-16T09:37:14;4.37;;;3.83;;
34098;SDS011;20374;49.474;10.944;2022-10-16T09:39:47;3.92;;;3.65;;
34098;SDS011;20374;49.474;10.944;2022-10-16T09:44:51;3.70;;;3.40;;
34098;SDS011;20374;49.474;10.944;2022-10-16T09:47:25;4.75;;;4.22;;
34098;SDS011;20374;49.474;10.944;2022-10-16T09:49:57;4.03;;;3.73;;
34098;SDS011;20374;49.474;10.944;2022-10-16T09:52:43;5.00;;;4.35;;
34098;SDS011;20374;49.474;10.944;2022-10-16T09:55:15;4.85;;;4.45;;
34098;SDS011;20374;49.474;10.944;2022-10-16T09:57:49;4.28;;;3.97;;
34098;SDS011;20374;49.474;10.944;2022-10-16T10:00:16;4.83;;;4.33;;
34098;SDS011;20374;49.474;10.944;2022-10-16T10:02:43;4.20;;;3.90;;
34098;SDS011;20374;49.474;10.944;2022-10-16T10:05:20;4.72;;;4.30;;
34098;SDS011;20374;49.474;10.944;2022-10-16T10:07:57;5.03;;;4.60;;
34098;SDS011;20374;49.474;10.944;2022-10-16T10:10:28;4.75;;;4.22;;
34098;SDS011;20374;49.474;10.944;2022-10-16T10:12:56;4.57;;;4.17;;
34098;SDS011;20374;49.474;10.944;2022-10-16T10:15:23;4.43;;;3.85;;
34098;SDS011;20374;49.474;10.944;2022-10-16T10:17:58;4.85;;;4.38;;
34098;SDS011;20374;49.474;10.944;2022-10-16T10:22:56;4.10;;;3.78;;
34098;SDS011;20374;49.474;10.944;2022-10-16T10:25:34;4.40;;;3.90;;
34098;SDS011;20374;49.474;10.944;2022-10-16T10:28:41;4.93;;;4.10;;
34098;SDS011;20374;49.474;10.944;2022-10-16T10:37:00;4.40;;;4.10;;
34098;SDS011;20374;49.474;10.944;2022-10-16T10:55:31;4.57;;;4.28;;
34098;SDS011;20374;49.474;10.944;2022-10-16T10:59:00;5.18;;;4.70;;
34098;SDS011;20374;49.474;10.944;2022-10-16T11:01:15;5.47;;;4.70;;
34098;SDS011;20374;49.474;10.944;2022-10-16T11:06:32;4.20;;;3.80;;
34098;SDS011;20374;49.474;10.944;2022-10-16T11:09:10;4.60;;;4.20;;
34098;SDS011;20374;49.474;10.944;2022-10-16T11:11:39;3.90;;;3.60;;
34098;SDS011;20374;49.474;10.944;2022-10-16T11:17:13;3.70;;;3.40;;
34098;SDS011;20374;49.474;10.944;2022-10-16T11:20:14;4.45;;;4.15;;
34098;SDS011;20374;49.474;10.944;2022-10-16T11:22:51;4.28;;;3.97;;
34098;SDS011;20374;49.474;10.944;2022-10-16T11:25:26;4.18;;;3.72;;
34098;SDS011;20374;49.474;10.944;2022-10-16T11:30:59;3.80;;;3.50;;
34098;SDS011;20374;49.474;10.944;2022-10-16T11:36:27;4.20;;;3.90;;
34098;SDS011;20374;49.474;10.944;2022-10-16T11:45:24;4.67;;;4.30;;
34098;SDS011;20374;49.474;10.944;2022-10-16T11:47:58;4.50;;;4.20;;
34098;SDS011;20374;49.474;10.944;2022-10-16T11:53:45;4.00;;;3.58;;
34098;SDS011;20374;49.474;10.944;2022-10-16T12:09:52;4.60;;;4.30;;
34098;SDS011;20374;49.474;10.944;2022-10-16T12:15:49;4.03;;;3.73;;
34098;SDS011;20374;49.474;10.944;2022-10-16T12:18:24;3.35;;;3.05;;
34098;SDS011;20374;49.474;10.944;2022-10-16T12:20:57;4.60;;;4.22;;
34098;SDS011;20374;49.474;10.944;2022-10-16T12:23:24;3.03;;;2.83;;
34098;SDS011;20374;49.474;10.944;2022-10-16T12:25:54;4.70;;;4.40;;
34098;SDS011;20374;49.474;10.944;2022-10-16T12:28:22;3.70;;;3.38;;
34098;SDS011;20374;49.474;10.944;2022-10-16T12:31:06;4.47;;;4.18;;
34098;SDS011;20374;49.474;10.944;2022-10-16T12:33:35;4.40;;;4.00;;
34098;SDS011;20374;49.474;10.944;2022-10-16T12:36:16;5.10;;;4.70;;
34098;SDS011;20374;49.474;10.944;2022-10-16T12:38:54;4.70;;;4.40;;
34098;SDS011;20374;49.474;10.944;2022-10-16T12:41:34;4.05;;;3.72;;
34098;SDS011;20374;49.474;10.944;2022-10-16T12:44:05;4.18;;;3.88;;
34098;SDS011;20374;49.474;10.944;2022-10-16T12:46:46;4.78;;;4.47;;
34098;SDS011;20374;49.474;10.944;2022-10-16T12:51:38;5.17;;;4.67;;
34098;SDS011;20374;49.474;10.944;2022-10-16T12:54:15;4.32;;;4.03;;
34098;SDS011;20374;49.474;10.944;2022-10-16T13:13:38;4.57;;;3.33;;
34098;SDS011;20374;49.474;10.944;2022-10-16T13:16:23;4.77;;;4.37;;
34098;SDS011;20374;49.474;10.944;2022-10-16T13:29:40;6.60;;;4.50;;
34098;SDS011;20374;49.474;10.944;2022-10-16T13:32:08;5.57;;;3.55;;
34098;SDS011;20374;49.474;10.944;2022-10-16T13:34:47;4.70;;;4.30;;
34098;SDS011;20374;49.474;10.944;2022-10-16T13:37:21;4.88;;;4.45;;
34098;SDS011;20374;49.474;10.944;2022-10-16T13:39:49;4.10;;;3.80;;
34098;SDS011;20374;49.474;10.944;2022-10-16T13:42:28;4.70;;;4.40;;
34098;SDS011;20374;49.474;10.944;2022-10-16T13:44:55;4.20;;;3.90;;
34098;SDS011;20374;49.474;10.944;2022-10-16T13:47:23;4.13;;;3.72;;
34098;SDS011;20374;49.474;10.944;2022-10-16T13:52:26;4.93;;;4.53;;
34098;SDS011;20374;49.474;10.944;2022-10-16T13:54:52;4.67;;;4.37;;
34098;SDS011;20374;49.474;10.944;2022-10-16T13:57:18;3.53;;;3.30;;
34098;SDS011;20374;49.474;10.944;2022-10-16T13:59:48;4.68;;;4.38;;
34098;SDS011;20374;49.474;10.944;2022-10-16T14:02:22;4.57;;;4.18;;
34098;SDS011;20374;49.474;10.944;2022-10-16T14:04:51;4.50;;;4.20;;
34098;SDS011;20374;49.474;10.944;2022-10-16T14:07:27;3.95;;;3.30;;
34098;SDS011;20374;49.474;10.944;2022-10-16T14:09:57;14.90;;;4.70;;
34098;SDS011;20374;49.474;10.944;2022-10-16T14:12:27;4.85;;;4.30;;
34098;SDS011;20374;49.474;10.944;2022-10-16T14:14:54;4.07;;;3.78;;
34098;SDS011;20374;49.474;10.944;2022-10-16T14:17:23;4.30;;;4.00;;
34098;SDS011;20374;49.474;10.944;2022-10-16T14:19:58;4.03;;;3.72;;
34098;SDS011;20374;49.474;10.944;2022-10-16T14:24:57;4.18;;;3.90;;
34098;SDS011;20374;49.474;10.944;2022-10-16T14:27:26;4.57;;;4.28;;
34098;SDS011;20374;49.474;10.944;2022-10-16T14:32:52;8.55;;;4.57;;
34098;SDS011;20374;49.474;10.944;2022-10-16T14:35:33;5.85;;;5.45;;
34098;SDS011;20374;49.474;10.944;2022-10-16T14:38:04;5.40;;;5.00;;
34098;SDS011;20374;49.474;10.944;2022-10-16T14:40:32;4.53;;;4.22;;
34098;SDS011;20374;49.474;10.944;2022-10-16T14:43:01;4.67;;;4.37;;
34098;SDS011;20374;49.474;10.944;2022-10-16T14:45:29;5.53;;;5.13;;
34098;SDS011;20374;49.474;10.944;2022-10-16T14:47:59;5.22;;;4.85;;
34098;SDS011;20374;49.474;10.944;2022-10-16T14:50:27;5.05;;;4.53;;
34098;SDS011;20374;49.474;10.944;2022-10-16T14:52:54;4.47;;;4.18;;
34098;SDS011;20374;49.474;10.944;2022-10-16T14:55:20;6.90;;;4.87;;
34098;SDS011;20374;49.474;10.944;2022-10-16T14:57:46;5.28;;;4.97;;
34098;SDS011;20374;49.474;10.944;2022-10-16T15:00:17;4.80;;;4.40;;
34098;SDS011;20374;49.474;10.944;2022-10-16T15:02:48;5.43;;;5.03;;
34098;SDS011;20374;49.474;10.944;2022-10-16T15:05:22;4.45;;;4.15;;
34098;SDS011;20374;49.474;10.944;2022-10-16T15:07:51;4.13;;;3.83;;
34098;SDS011;20374;49.474;10.944;2022-10-16T15:10:18;4.63;;;4.32;;
34098;SDS011;20374;49.474;10.944;2022-10-16T15:12:49;5.00;;;4.70;;
34098;SDS011;20374;49.474;10.944;2022-10-16T15:15:32;4.97;;;4.68;;
34098;SDS011;20374;49.474;10.944;2022-10-16T15:18:08;4.97;;;4.68;;
34098;SDS011;20374;49.474;10.944;2022-10-16T15:20:36;5.27;;;4.87;;
34098;SDS011;20374;49.474;10.944;2022-10-16T15:23:04;4.43;;;4.03;;
34098;SDS011;20374;49.474;10.944;2022-10-16T15:28:19;4.70;;;4.40;;
34098;SDS011;20374;49.474;10.944;2022-10-16T15:30:46;5.32;;;4.85;;
34098;SDS011;20374;49.474;10.944;2022-10-16T15:33:15;5.63;;;5.13;;
34098;SDS011;20374;49.474;10.944;2022-10-16T15:35:52;6.05;;;5.65;;
34098;SDS011;20374;49.474;10.944;2022-10-16T15:39:15;5.25;;;4.85;;
34098;SDS011;20374;49.474;10.944;2022-10-16T15:41:49;5.07;;;4.57;;
34098;SDS011;20374;49.474;10.944;2022-10-16T15:44:42;7.20;;;6.70;;
34098;SDS011;20374;49.474;10.944;2022-10-16T15:47:08;5.53;;;4.77;;
34098;SDS011;20374;49.474;10.944;2022-10-16T15:49:35;4.68;;;4.22;;
34098;SDS011;20374;49.474;10.944;2022-10-16T15:52:01;5.38;;;5.07;;
34098;SDS011;20374;49.474;10.944;2022-10-16T15:54:29;5.85;;;5.38;;
34098;SDS011;20374;49.474;10.944;2022-10-16T15:56:55;5.47;;;4.97;;
34098;SDS011;20374;49.474;10.944;2022-10-16T15:59:21;5.97;;;5.47;;
34098;SDS011;20374;49.474;10.944;2022-10-16T16:01:47;5.80;;;5.18;;
34098;SDS011;20374;49.474;10.944;2022-10-16T16:04:13;5.78;;;5.28;;
34098;SDS011;20374;49.474;10.944;2022-10-16T16:06:39;4.65;;;4.25;;
34098;SDS011;20374;49.474;10.944;2022-10-16T16:09:10;5.73;;;5.10;;
34098;SDS011;20374;49.474;10.944;2022-10-16T16:11:36;6.28;;;5.10;;
34098;SDS011;20374;49.474;10.944;2022-10-16T16:14:04;5.95;;;4.43;;
34098;SDS011;20374;49.474;10.944;2022-10-16T16:16:31;7.50;;;5.00;;
34098;SDS011;20374;49.474;10.944;2022-10-16T16:19:02;6.05;;;5.45;;
34098;SDS011;20374;49.474;10.944;2022-10-16T16:21:28;7.50;;;6.73;;
34098;SDS011;20374;49.474;10.944;2022-10-16T16:23:55;7.50;;;6.78;;
34098;SDS011;20374;49.474;10.944;2022-10-16T16:26:24;11.60;;;6.95;;
34098;SDS011;20374;49.474;10.944;2022-10-16T16:28:52;5.63;;;5.20;;
34098;SDS011;20374;49.474;10.944;2022-10-16T16:31:19;8.03;;;6.10;;
34098;SDS011;20374;49.474;10.944;2022-10-16T16:33:48;5.70;;;5.20;;
34098;SDS011;20374;49.474;10.944;2022-10-16T16:36:16;4.90;;;4.50;;
34098;SDS011;20374;49.474;10.944;2022-10-16T16:38:43;5.90;;;4.72;;
34098;SDS011;20374;49.474;10.944;2022-10-16T16:41:13;5.38;;;4.68;;
34098;SDS011;20374;49.474;10.944;2022-10-16T16:43:41;5.37;;;5.03;;
34098;SDS011;20374;49.474;10.944;2022-10-16T16:46:07;5.05;;;4.55;;
34098;SDS011;20374;49.474;10.944;2022-10-16T16:48:34;4.78;;;4.43;;
34098;SDS011;20374;49.474;10.944;2022-10-16T16:51:07;5.57;;;5.07;;
34098;SDS011;20374;49.474;10.944;2022-10-16T16:53:48;6.30;;;4.30;;
34098;SDS011;20374;49.474;10.944;2022-10-16T16:56:15;5.33;;;4.93;;
34098;SDS011;20374;49.474;10.944;2022-10-16T16:58:41;5.15;;;4.75;;
34098;SDS011;20374;49.474;10.944;2022-10-16T17:01:09;5.80;;;5.05;;
34098;SDS011;20374;49.474;10.944;2022-10-16T17:03:36;5.75;;;5.25;;
34098;SDS011;20374;49.474;10.944;2022-10-16T17:06:03;4.65;;;4.25;;